Time;durP1;ratioP1;P1;durP2;ratioP2;P2;SDS_P1;SDS_P2;PMS_P1;PMS_P2;Temp;Humidity;BMP_temperature;BMP_pressure;BME280_temperature;BME280_humidity;BME280_pressure;Samples;Min_cycle;Max_cycle;Signal;HPM_P1;HPM_P2
2022/07/26 00:00:59;;;;;;;3.27;2.40;;;;;;;27.60;38.86;97293.72;5060592;28;20661;-71
2022/07/26 00:03:24;;;;;;;3.60;2.50;;;;;;;27.53;39.16;97301.22;5060588;28;20265;-71
2022/07/26 00:05:50;;;;;;;5.57;2.90;;;;;;;27.49;39.31;97300.13;5058152;28;20698;-71
2022/07/26 00:08:15;;;;;;;2.70;2.13;;;;;;;27.50;39.25;97312.50;5059771;28;20198;-71
2022/07/26 00:10:45;;;;;;;3.77;2.43;;;;;;;27.55;39.18;97324.09;5060043;28;20179;-71
2022/07/26 00:13:11;;;;;;;5.87;2.30;;;;;;;27.60;39.23;97326.03;5068878;28;20178;-71
2022/07/26 00:15:37;;;;;;;2.10;1.90;;;;;;;27.63;39.41;97325.50;5062116;28;20456;-71
2022/07/26 00:18:04;;;;;;;3.20;2.10;;;;;;;27.59;39.03;97319.84;5060149;28;20453;-71
2022/07/26 00:20:29;;;;;;;2.70;2.50;;;;;;;27.53;39.56;97314.69;5069747;28;20456;-71
2022/07/26 00:22:55;;;;;;;7.30;2.27;;;;;;;27.52;39.31;97321.97;5076275;28;20434;-72
2022/07/26 00:25:20;;;;;;;19.17;1.93;;;;;;;27.52;38.65;97321.13;5063175;28;20266;-72
2022/07/26 00:27:46;;;;;;;4.50;1.70;;;;;;;27.47;38.85;97313.84;5072334;28;20229;-71
2022/07/26 00:30:12;;;;;;;2.83;1.60;;;;;;;27.48;38.97;97317.34;5073571;28;20185;-71
2022/07/26 00:32:37;;;;;;;4.83;1.63;;;;;;;27.53;39.19;97320.06;5078430;28;20181;-72
2022/07/26 00:35:05;;;;;;;2.33;1.40;;;;;;;27.48;39.20;97322.72;5072837;28;20293;-71
2022/07/26 00:37:30;;;;;;;2.60;1.40;;;;;;;27.50;39.40;97320.56;5063016;28;20255;-71
2022/07/26 00:39:56;;;;;;;6.83;1.40;;;;;;;27.54;39.48;97321.69;5069100;28;20421;-71
2022/07/26 00:42:21;;;;;;;6.50;1.83;;;;;;;27.54;39.48;97322.50;5064985;28;20186;-72
2022/07/26 00:44:47;;;;;;;3.63;1.53;;;;;;;27.54;39.30;97319.78;5062649;28;20199;-70
2022/07/26 00:47:13;;;;;;;2.27;1.27;;;;;;;27.52;39.42;97313.88;5073425;28;20616;-71
2022/07/26 00:49:39;;;;;;;5.10;1.50;;;;;;;27.55;39.52;97323.31;5067177;28;20262;-71
2022/07/26 00:52:05;;;;;;;3.57;1.10;;;;;;;27.52;39.71;97324.66;5070564;28;20227;-72
2022/07/26 00:54:30;;;;;;;2.40;1.30;;;;;;;27.48;40.00;97317.34;5070032;28;20417;-71
2022/07/26 00:56:56;;;;;;;3.23;1.30;;;;;;;27.44;40.15;97323.25;5049396;28;20800;-71
2022/07/26 00:59:22;;;;;;;2.80;1.50;;;;;;;27.41;39.98;97328.28;5073888;28;20213;-70
2022/07/26 01:01:47;;;;;;;1.37;1.00;;;;;;;27.40;40.26;97334.75;5078160;28;20187;-70
2022/07/26 01:04:13;;;;;;;2.80;1.30;;;;;;;27.39;40.29;97331.25;5069114;28;20934;-71
2022/07/26 01:06:40;;;;;;;5.93;1.30;;;;;;;27.37;40.22;97330.69;5052724;28;20225;-70
2022/07/26 01:09:05;;;;;;;1.73;1.30;;;;;;;27.33;40.63;97326.91;5070593;28;20174;-71
2022/07/26 01:11:31;;;;;;;4.90;1.00;;;;;;;27.33;40.68;97334.16;5058117;28;20916;-70
2022/07/26 01:13:56;;;;;;;1.60;1.27;;;;;;;27.36;40.63;97331.75;5062935;28;20178;-70
2022/07/26 01:16:22;;;;;;;3.77;1.10;;;;;;;27.38;41.11;97335.00;5063489;28;20211;-72
2022/07/26 01:18:48;;;;;;;2.97;1.20;;;;;;;27.41;40.86;97329.13;5070201;28;20251;-71
2022/07/26 01:21:13;;;;;;;3.30;1.30;;;;;;;27.44;40.93;97328.63;5075483;28;20412;-71
2022/07/26 01:23:39;;;;;;;3.97;1.30;;;;;;;27.49;40.88;97337.78;5075925;28;20174;-71
2022/07/26 01:26:05;;;;;;;1.57;1.13;;;;;;;27.53;41.43;97325.44;5074796;28;20197;-72
2022/07/26 01:28:35;;;;;;;3.37;1.50;;;;;;;27.51;41.76;97335.66;5065193;28;20251;-72
2022/07/26 01:31:00;;;;;;;5.57;1.30;;;;;;;27.47;41.98;97335.38;5075251;28;20246;-73
2022/07/26 01:33:26;;;;;;;1.60;1.50;;;;;;;27.38;42.67;97335.00;5070893;28;20512;-72
2022/07/26 01:35:52;;;;;;;3.10;1.30;;;;;;;27.29;42.86;97334.66;5075535;28;20202;-72
2022/07/26 01:38:18;;;;;;;2.17;1.40;;;;;;;27.24;43.13;97345.41;5057436;28;20456;-71
2022/07/26 01:40:43;;;;;;;3.73;1.13;;;;;;;27.19;43.16;97358.00;5073608;28;20777;-72
2022/07/26 01:43:09;;;;;;;3.33;1.37;;;;;;;27.14;43.37;97345.31;5064667;28;20231;-71
2022/07/26 01:45:34;;;;;;;2.60;1.10;;;;;;;27.15;43.25;97349.63;5063305;28;20532;-72
2022/07/26 01:48:00;;;;;;;4.13;1.20;;;;;;;27.18;43.26;97349.09;5075006;28;20208;-71
2022/07/26 01:50:26;;;;;;;2.60;1.03;;;;;;;27.17;43.19;97354.75;5070560;28;20178;-73
2022/07/26 01:52:51;;;;;;;2.13;1.33;;;;;;;27.21;43.39;97351.28;5068370;28;20175;-73
2022/07/26 01:55:17;;;;;;;2.43;1.33;;;;;;;27.23;43.29;97343.78;5050322;28;20194;-72
2022/07/26 01:57:44;;;;;;;2.33;1.30;;;;;;;27.18;43.35;97353.69;5073159;28;20194;-72
2022/07/26 02:00:10;;;;;;;3.90;1.00;;;;;;;27.09;43.56;97346.06;5080206;28;20174;-72
2022/07/26 02:02:36;;;;;;;1.60;1.20;;;;;;;27.08;43.83;97341.78;5075199;28;20509;-72
2022/07/26 02:05:01;;;;;;;1.70;1.00;;;;;;;26.99;44.11;97346.00;5071931;28;20420;-72
2022/07/26 02:07:29;;;;;;;1.50;1.13;;;;;;;26.87;44.64;97342.66;5070411;28;20209;-71
2022/07/26 02:09:56;;;;;;;1.50;1.17;;;;;;;26.93;44.85;97339.75;5076942;28;20179;-71
2022/07/26 02:12:22;;;;;;;3.07;1.10;;;;;;;26.96;44.79;97344.63;5068713;28;20434;-73
2022/07/26 02:14:47;;;;;;;1.93;1.00;;;;;;;26.92;44.89;97342.72;5065845;28;20453;-73
2022/07/26 02:17:13;;;;;;;1.77;1.10;;;;;;;26.89;45.14;97338.66;5056409;28;20201;-72
2022/07/26 02:19:38;;;;;;;2.83;1.30;;;;;;;26.85;45.02;97336.72;5071931;28;20186;-71
2022/07/26 02:22:04;;;;;;;2.80;1.00;;;;;;;26.83;45.28;97335.13;5060049;28;20203;-71
2022/07/26 02:24:29;;;;;;;3.17;1.13;;;;;;;26.79;44.97;97328.63;5065992;28;20718;-71
2022/07/26 02:26:56;;;;;;;1.33;1.00;;;;;;;26.68;45.35;97326.88;5074647;28;20217;-71
2022/07/26 02:29:21;;;;;;;1.23;1.10;;;;;;;26.70;45.42;97329.28;5061315;28;20184;-71
2022/07/26 02:31:47;;;;;;;1.30;1.20;;;;;;;26.69;45.34;97328.50;5065823;28;20428;-71
2022/07/26 02:34:12;;;;;;;4.80;1.23;;;;;;;26.65;45.49;97325.47;5070357;28;20269;-71
2022/07/26 02:36:38;;;;;;;1.10;1.00;;;;;;;26.63;45.66;97329.50;5076303;28;20211;-72
2022/07/26 02:39:04;;;;;;;3.20;1.20;;;;;;;26.63;45.87;97334.88;5065068;28;20183;-71
2022/07/26 02:41:30;;;;;;;1.20;1.10;;;;;;;26.68;45.80;97334.94;5069733;28;20175;-71
2022/07/26 02:43:55;;;;;;;3.83;1.20;;;;;;;26.69;45.37;97333.88;5060393;28;20180;-71
2022/07/26 02:46:21;;;;;;;2.40;1.20;;;;;;;26.44;45.54;97337.91;5067274;28;20459;-70
2022/07/26 02:48:46;;;;;;;1.23;1.10;;;;;;;26.42;45.67;97334.66;5077001;28;20252;-70
2022/07/26 02:51:12;;;;;;;1.37;1.27;;;;;;;26.43;45.50;97328.22;5068318;28;20542;-70
2022/07/26 02:53:37;;;;;;;3.43;1.20;;;;;;;26.40;45.29;97328.72;5071830;28;20183;-70
2022/07/26 02:56:03;;;;;;;3.50;1.17;;;;;;;26.38;45.01;97333.53;5064361;28;20201;-71
2022/07/26 02:58:28;;;;;;;1.83;1.43;;;;;;;26.30;45.38;97326.72;5068095;28;20201;-71
2022/07/26 03:00:54;;;;;;;2.50;1.40;;;;;;;26.30;45.36;97323.25;5073582;28;20269;-71
2022/07/26 03:03:20;;;;;;;3.40;1.10;;;;;;;26.22;45.25;97325.28;5077157;28;20179;-72
2022/07/26 03:05:45;;;;;;;2.33;1.20;;;;;;;26.21;45.51;97320.19;5068363;28;20304;-71
2022/07/26 03:08:10;;;;;;;1.87;1.10;;;;;;;26.24;45.41;97318.88;5072606;28;20202;-70
2022/07/26 03:10:36;;;;;;;3.20;1.30;;;;;;;26.18;45.54;97313.44;5073054;28;20203;-72
2022/07/26 03:13:01;;;;;;;2.07;1.10;;;;;;;26.18;45.44;97313.44;5070840;28;20581;-71
2022/07/26 03:15:27;;;;;;;1.83;1.10;;;;;;;26.21;45.36;97312.13;5076950;28;20231;-72
2022/07/26 03:17:54;;;;;;;4.63;1.40;;;;;;;26.17;45.46;97317.19;5075323;28;20559;-72
2022/07/26 03:20:19;;;;;;;1.60;1.40;;;;;;;26.12;45.89;97319.81;5073301;28;20274;-71
2022/07/26 03:22:45;;;;;;;2.77;1.10;;;;;;;26.04;46.06;97317.53;5080531;28;20907;-71
2022/07/26 03:25:10;;;;;;;4.03;1.50;;;;;;;26.05;46.10;97325.34;5063553;28;20697;-71
2022/07/26 03:27:36;;;;;;;1.87;1.30;;;;;;;26.01;46.21;97332.28;5069031;28;20202;-72
2022/07/26 03:30:01;;;;;;;1.47;1.37;;;;;;;25.99;46.07;97326.34;5083441;28;20181;-72
2022/07/26 03:32:27;;;;;;;1.63;1.37;;;;;;;25.94;46.40;97328.16;5063077;28;20183;-71
2022/07/26 03:34:52;;;;;;;1.40;1.27;;;;;;;25.81;46.82;97327.47;5053090;28;20236;-71
2022/07/26 03:37:18;;;;;;;2.13;1.33;;;;;;;25.78;46.40;97327.94;5053951;28;20206;-71
2022/07/26 03:39:43;;;;;;;2.77;1.27;;;;;;;25.70;46.72;97336.44;5064572;28;20697;-71
2022/07/26 03:42:09;;;;;;;1.40;1.20;;;;;;;25.70;46.82;97333.75;5060345;28;20186;-71
2022/07/26 03:44:34;;;;;;;5.93;1.10;;;;;;;25.69;46.66;97332.91;5063878;28;20179;-72
2022/07/26 03:47:00;;;;;;;1.53;1.40;;;;;;;25.59;47.29;97336.25;5073681;28;20615;-71
2022/07/26 03:49:26;;;;;;;2.80;1.47;;;;;;;25.64;46.90;97340.09;5055508;28;20183;-71
2022/07/26 03:51:51;;;;;;;6.60;1.60;;;;;;;25.60;46.95;97340.56;5053172;28;20671;-71
2022/07/26 03:54:17;;;;;;;2.07;1.63;;;;;;;25.60;47.40;97339.78;5060088;28;20197;-71
2022/07/26 03:56:42;;;;;;;2.80;1.47;;;;;;;25.58;47.07;97340.00;5063904;28;20305;-71
2022/07/26 03:59:09;;;;;;;7.47;1.70;;;;;;;25.60;47.37;97329.03;5063669;28;20202;-70
2022/07/26 04:01:40;;;;;;;1.60;1.50;;;;;;;25.61;47.38;97339.50;5045438;28;20193;-70
2022/07/26 04:04:10;;;;;;;1.83;1.47;;;;;;;25.60;47.68;97334.41;5060508;28;20515;-71
2022/07/26 04:06:36;;;;;;;3.53;1.40;;;;;;;25.60;47.36;97340.56;5054932;28;20456;-73
2022/07/26 04:09:03;;;;;;;2.77;1.30;;;;;;;25.54;47.20;97338.88;5072459;28;20424;-73
2022/07/26 04:11:28;;;;;;;4.00;1.43;;;;;;;25.53;47.23;97341.78;5063954;28;20927;-72
2022/07/26 04:13:54;;;;;;;2.17;1.97;;;;;;;25.44;47.83;97339.53;5074258;28;20446;-72
2022/07/26 04:16:20;;;;;;;4.07;1.30;;;;;;;25.43;47.57;97339.81;5064431;28;20673;-71
2022/07/26 04:18:45;;;;;;;2.27;1.30;;;;;;;25.38;48.07;97343.19;5058258;28;20425;-71
2022/07/26 04:21:11;;;;;;;1.93;1.73;;;;;;;25.31;48.12;97337.16;5066248;28;20462;-72
2022/07/26 04:23:36;;;;;;;1.57;1.47;;;;;;;25.33;47.83;97340.41;5068437;28;20274;-70
2022/07/26 04:26:02;;;;;;;1.93;1.50;;;;;;;25.32;48.21;97340.66;5079520;28;20181;-70
2022/07/26 04:28:27;;;;;;;5.50;1.30;;;;;;;25.31;48.50;97347.88;5051760;28;20764;-72
2022/07/26 04:30:57;;;;;;;1.40;1.30;;;;;;;25.30;47.94;97352.44;5072380;28;20276;-73
2022/07/26 04:33:23;;;;;;;2.70;1.40;;;;;;;25.21;48.61;97353.09;5042963;28;20212;-72
2022/07/26 04:35:48;;;;;;;1.93;1.50;;;;;;;25.11;48.24;97351.03;5069347;28;20468;-72
2022/07/26 04:38:14;;;;;;;5.20;1.63;;;;;;;25.10;48.87;97358.28;5062411;28;20455;-72
2022/07/26 04:40:39;;;;;;;5.23;1.70;;;;;;;25.07;48.21;97352.59;5062489;28;20179;-72
2022/07/26 04:43:05;;;;;;;2.30;1.40;;;;;;;25.11;48.75;97353.72;5055105;28;20197;-72
2022/07/26 04:45:30;;;;;;;2.47;1.37;;;;;;;25.13;48.80;97354.31;5060830;28;20210;-72
2022/07/26 04:47:56;;;;;;;2.90;1.77;;;;;;;25.13;48.73;97354.31;5062515;28;20247;-73
2022/07/26 04:50:23;;;;;;;2.03;1.60;;;;;;;25.19;48.61;97356.03;5055329;28;20194;-73
2022/07/26 04:52:49;;;;;;;2.63;1.70;;;;;;;25.11;48.48;97356.41;5063985;28;20426;-73
2022/07/26 04:55:15;;;;;;;2.73;1.40;;;;;;;25.18;48.42;97366.97;5059030;28;20834;-72
2022/07/26 04:57:40;;;;;;;1.93;1.60;;;;;;;25.21;48.40;97369.19;5068461;28;20457;-72
2022/07/26 05:00:08;;;;;;;1.80;1.60;;;;;;;25.23;48.62;97367.06;5053134;28;20390;-73
2022/07/26 05:02:34;;;;;;;7.87;1.70;;;;;;;25.19;48.06;97368.59;5062338;28;20193;-72
2022/07/26 05:04:59;;;;;;;2.73;1.30;;;;;;;25.12;48.31;97368.75;5062649;28;20426;-72
2022/07/26 05:07:25;;;;;;;2.93;1.70;;;;;;;25.09;48.69;97367.38;5068105;28;20281;-72
2022/07/26 05:09:50;;;;;;;1.93;1.50;;;;;;;25.14;48.75;97375.50;5063775;28;20189;-71
2022/07/26 05:12:16;;;;;;;2.97;1.60;;;;;;;25.22;48.50;97368.13;5056004;28;20190;-72
2022/07/26 05:14:43;;;;;;;4.93;1.80;;;;;;;25.25;48.80;97371.13;5073358;28;20263;-72
2022/07/26 05:17:09;;;;;;;3.23;1.87;;;;;;;25.26;48.45;97378.13;5068979;28;20197;-71
2022/07/26 05:19:36;;;;;;;2.13;1.77;;;;;;;25.29;48.30;97372.28;5070089;28;20497;-72
2022/07/26 05:22:01;;;;;;;1.93;1.70;;;;;;;25.34;48.57;97374.22;5054673;28;20444;-72
2022/07/26 05:24:27;;;;;;;2.13;1.80;;;;;;;25.47;48.23;97378.47;5070810;28;20426;-70
2022/07/26 05:26:52;;;;;;;2.13;1.90;;;;;;;25.53;48.29;97376.66;5050058;28;20280;-72
2022/07/26 05:29:18;;;;;;;3.93;2.00;;;;;;;25.59;48.28;97379.19;5067398;28;20615;-69
2022/07/26 05:31:43;;;;;;;6.80;1.93;;;;;;;25.64;48.00;97383.00;5072645;28;20182;-71
2022/07/26 05:34:09;;;;;;;2.50;1.90;;;;;;;25.69;47.57;97386.59;5070960;28;20632;-71
2022/07/26 05:36:34;;;;;;;6.23;2.07;;;;;;;25.74;47.78;97388.53;5064017;28;20209;-70
2022/07/26 05:39:00;;;;;;;6.13;2.10;;;;;;;25.72;47.51;97385.28;5069999;28;20178;-71
2022/07/26 05:41:26;;;;;;;3.90;1.90;;;;;;;25.66;47.63;97387.06;5052294;28;20190;-71
2022/07/26 05:43:51;;;;;;;7.73;2.27;;;;;;;25.59;47.37;97389.91;5062199;28;20185;-72
2022/07/26 05:46:17;;;;;;;2.33;2.03;;;;;;;25.46;47.59;97387.56;5067074;28;20261;-72
2022/07/26 05:48:51;;;;;;;2.80;1.80;;;;;;;25.40;47.72;97396.56;5051253;28;20193;-72
2022/07/26 05:51:16;;;;;;;3.23;1.97;;;;;;;25.35;48.13;97391.13;5064810;28;20209;-72
2022/07/26 05:53:42;;;;;;;3.03;2.00;;;;;;;25.33;48.29;97387.88;5041010;28;20849;-72
2022/07/26 05:56:08;;;;;;;2.90;1.90;;;;;;;25.38;48.18;97383.41;5045600;28;20234;-71
2022/07/26 05:58:33;;;;;;;5.57;2.37;;;;;;;25.54;48.08;97389.88;5064920;28;20216;-72
2022/07/26 06:00:59;;;;;;;3.77;2.20;;;;;;;25.64;48.19;97393.75;5066744;28;20274;-71
2022/07/26 06:03:24;;;;;;;3.13;2.30;;;;;;;25.74;47.67;97394.72;5066069;28;20256;-71
2022/07/26 06:05:55;;;;;;;2.90;2.10;;;;;;;25.86;47.45;97383.06;5066237;28;20216;-71
2022/07/26 06:08:21;;;;;;;2.50;2.20;;;;;;;25.96;47.11;97385.91;5054546;28;20213;-71
2022/07/26 06:10:47;;;;;;;3.67;2.20;;;;;;;26.13;47.14;97391.25;5051611;28;20417;-70
2022/07/26 06:13:13;;;;;;;4.10;1.90;;;;;;;26.31;46.42;97392.03;5051535;28;20830;-71
2022/07/26 06:15:39;;;;;;;5.00;2.17;;;;;;;26.42;46.03;97391.06;5053761;28;20214;-71
2022/07/26 06:18:05;;;;;;;4.40;1.90;;;;;;;26.44;44.98;97396.19;5065861;28;20201;-71
2022/07/26 06:20:31;;;;;;;3.50;1.90;;;;;;;26.46;44.73;97394.91;5067540;28;20676;-71
2022/07/26 06:22:57;;;;;;;8.33;2.10;;;;;;;26.57;44.00;97395.81;5061455;28;20825;-72
2022/07/26 06:25:24;;;;;;;2.73;2.20;;;;;;;26.68;44.15;97392.16;5057955;28;20486;-72
2022/07/26 06:27:49;;;;;;;6.63;1.70;;;;;;;26.75;43.39;97391.97;5065955;28;20451;-72
2022/07/26 06:30:15;;;;;;;7.80;1.60;;;;;;;26.84;41.88;97395.06;5068670;28;20865;-71
2022/07/26 06:32:43;;;;;;;2.30;1.60;;;;;;;26.92;41.83;97396.47;5055176;28;20599;-71
2022/07/26 06:35:12;;;;;;;6.30;1.93;;;;;;;27.00;40.72;97390.63;5074483;28;20214;-71
2022/07/26 06:37:38;;;;;;;3.17;1.50;;;;;;;27.08;41.06;97389.38;5046484;28;20444;-71
2022/07/26 06:40:05;;;;;;;5.77;1.70;;;;;;;27.21;39.88;97388.16;5071079;28;20954;-71
2022/07/26 06:42:31;;;;;;;2.37;1.57;;;;;;;27.27;37.95;97390.63;5066898;28;20974;-71
2022/07/26 06:44:58;;;;;;;1.60;1.23;;;;;;;27.31;37.95;97395.47;5059500;28;20786;-72
2022/07/26 06:47:24;;;;;;;5.87;1.50;;;;;;;27.36;38.18;97396.31;5056668;28;20441;-72
2022/07/26 06:49:49;;;;;;;1.73;1.47;;;;;;;27.49;38.16;97394.28;5057838;28;20479;-71
2022/07/26 06:52:15;;;;;;;4.20;1.43;;;;;;;27.66;37.65;97396.88;5063903;28;20420;-71
2022/07/26 06:54:40;;;;;;;2.90;1.60;;;;;;;27.78;36.96;97393.97;5070164;28;20265;-72
2022/07/26 06:57:05;;;;;;;5.43;1.40;;;;;;;27.87;36.51;97398.63;5064047;28;20195;-72
2022/07/26 06:59:31;;;;;;;4.07;1.70;;;;;;;28.01;36.69;97395.47;5068217;28;20337;-72
2022/07/26 07:01:56;;;;;;;2.00;1.30;;;;;;;28.11;35.49;97397.41;5056433;28;20186;-72
2022/07/26 07:04:22;;;;;;;3.60;1.30;;;;;;;28.22;34.91;97393.72;5061840;28;20617;-73
2022/07/26 07:06:47;;;;;;;2.33;1.13;;;;;;;28.17;35.01;97399.88;5067227;28;20278;-71
2022/07/26 07:09:13;;;;;;;12.03;1.40;;;;;;;28.17;35.20;97393.69;5055575;28;20183;-72
2022/07/26 07:11:39;;;;;;;2.40;1.40;;;;;;;28.35;34.55;97393.22;5060692;28;20190;-73
2022/07/26 07:14:04;;;;;;;4.93;1.00;;;;;;;28.48;34.67;97388.44;5064225;28;20585;-72
2022/07/26 07:16:30;;;;;;;5.60;1.10;;;;;;;28.57;33.51;97386.84;5063726;28;20465;-72
2022/07/26 07:18:55;;;;;;;3.93;1.30;;;;;;;28.60;34.14;97402.50;5047763;28;20262;-71
2022/07/26 07:21:20;;;;;;;5.10;1.17;;;;;;;28.73;33.51;97397.69;5074886;28;20221;-71
2022/07/26 07:23:46;;;;;;;4.03;1.10;;;;;;;28.80;33.21;97400.94;5068777;28;20193;-71
2022/07/26 07:26:11;;;;;;;1.87;0.93;;;;;;;28.84;32.67;97396.66;5066275;28;20822;-72
2022/07/26 07:28:37;;;;;;;2.00;1.13;;;;;;;28.84;32.42;97396.66;5069660;28;20214;-73
2022/07/26 07:31:03;;;;;;;12.73;1.87;;;;;;;28.92;33.22;97393.41;5066578;28;20183;-73
2022/07/26 07:33:29;;;;;;;5.33;1.10;;;;;;;28.83;32.10;97397.72;5060720;28;20194;-71
2022/07/26 07:35:55;;;;;;;3.70;1.10;;;;;;;28.99;32.82;97393.16;5064128;28;20468;-72
2022/07/26 07:38:20;;;;;;;2.30;1.00;;;;;;;29.10;32.35;97394.00;5063297;28;20582;-72
2022/07/26 07:40:46;;;;;;;5.67;1.40;;;;;;;29.09;32.11;97385.06;5060700;28;20183;-73
2022/07/26 07:43:11;;;;;;;6.10;1.10;;;;;;;29.15;31.73;97388.59;5067976;28;20194;-74
2022/07/26 07:45:37;;;;;;;3.37;1.07;;;;;;;29.23;31.16;97396.16;5059049;28;20187;-73
2022/07/26 07:48:02;;;;;;;2.07;1.00;;;;;;;29.21;30.91;97390.22;5062117;28;20206;-71
2022/07/26 07:50:28;;;;;;;3.43;1.00;;;;;;;29.30;31.04;97386.97;5038752;28;20233;-73
2022/07/26 07:52:53;;;;;;;6.00;1.30;;;;;;;29.44;30.94;97390.78;5043421;28;20182;-72
2022/07/26 07:55:19;;;;;;;2.43;0.90;;;;;;;29.62;30.93;97391.28;5068572;28;20214;-73
2022/07/26 07:57:44;;;;;;;2.00;1.00;;;;;;;29.73;29.77;97379.44;5059950;28;20205;-72
2022/07/26 08:00:13;;;;;;;4.63;1.20;;;;;;;29.78;29.88;97376.69;5062717;28;20182;-74
2022/07/26 08:02:39;;;;;;;2.40;0.97;;;;;;;29.93;29.96;97375.03;5059533;28;20179;-72
2022/07/26 08:05:06;;;;;;;5.93;1.20;;;;;;;30.06;29.31;97382.59;5065666;28;20425;-72
2022/07/26 08:07:32;;;;;;;1.50;1.00;;;;;;;30.15;29.29;97380.94;5052321;28;20211;-76
2022/07/26 08:09:58;;;;;;;3.20;1.30;;;;;;;30.07;29.12;97375.28;5064960;28;20429;-72
2022/07/26 08:12:23;;;;;;;3.10;1.17;;;;;;;30.25;29.17;97379.28;5066142;28;20186;-72
2022/07/26 08:14:48;;;;;;;2.37;1.00;;;;;;;30.39;28.89;97374.91;5068470;28;20190;-72
2022/07/26 08:17:14;;;;;;;1.97;0.90;;;;;;;30.22;28.93;97374.44;5054326;28;20206;-72
2022/07/26 08:19:40;;;;;;;3.37;1.40;;;;;;;30.07;29.01;97373.41;5063355;28;20186;-72
2022/07/26 08:22:07;;;;;;;1.77;0.90;;;;;;;30.12;29.53;97375.28;5064410;28;20186;-71
2022/07/26 08:24:33;;;;;;;6.13;1.00;;;;;;;30.15;29.20;97374.75;5059539;28;20179;-72
2022/07/26 08:26:58;;;;;;;10.67;1.20;;;;;;;30.38;29.06;97370.56;5054604;28;20483;-72
2022/07/26 08:29:24;;;;;;;3.27;1.00;;;;;;;30.59;28.53;97374.03;5045557;28;20202;-72
2022/07/26 08:31:51;;;;;;;3.63;1.30;;;;;;;30.80;28.43;97374.72;5065589;28;20179;-71
2022/07/26 08:34:17;;;;;;;3.43;1.20;;;;;;;31.09;28.22;97376.69;5060060;28;20210;-72
2022/07/26 08:36:43;;;;;;;3.97;1.10;;;;;;;31.03;28.18;97377.81;5047352;28;20488;-73
2022/07/26 08:39:09;;;;;;;4.13;0.90;;;;;;;30.89;27.89;97379.53;5040186;28;20508;-73
2022/07/26 08:41:35;;;;;;;1.67;0.90;;;;;;;30.67;27.75;97378.03;5064857;28;20563;-73
2022/07/26 08:44:08;;;;;;;1.83;0.80;;;;;;;30.48;28.29;97386.78;5073131;28;20219;-72
2022/07/26 08:46:35;;;;;;;4.00;1.33;;;;;;;30.29;27.98;97385.75;5067966;28;20812;-72
2022/07/26 08:49:01;;;;;;;2.40;0.90;;;;;;;30.07;28.69;97378.81;5061738;28;20436;-73
2022/07/26 08:51:27;;;;;;;5.17;1.10;;;;;;;29.81;29.00;97394.22;5046449;28;20482;-72
2022/07/26 08:53:56;;;;;;;3.67;1.10;;;;;;;29.81;29.58;97396.94;5067639;28;20644;-73
2022/07/26 08:56:21;;;;;;;6.03;0.90;;;;;;;29.94;28.84;97390.16;5061900;28;20210;-72
2022/07/26 08:58:47;;;;;;;6.80;1.17;;;;;;;30.19;28.33;97383.91;5062885;28;20442;-73
2022/07/26 09:01:12;;;;;;;1.40;0.80;;;;;;;30.45;28.55;97387.31;5063500;28;20186;-73
2022/07/26 09:03:42;;;;;;;3.03;1.20;;;;;;;30.49;27.92;97382.97;5073584;28;20212;-72
2022/07/26 09:06:21;;;;;;;9.97;1.40;;;;;;;30.43;28.02;97386.78;5061759;28;20256;-72
2022/07/26 09:08:50;;;;;;;1.53;1.30;;;;;;;30.47;27.88;97387.03;5060585;28;20907;-73
2022/07/26 09:11:27;;;;;;;2.93;1.00;;;;;;;30.56;27.06;97390.78;5062443;28;20429;-72
2022/07/26 09:13:59;;;;;;;3.73;1.07;;;;;;;30.60;27.44;97396.47;5065367;28;20520;-72
2022/07/26 09:16:25;;;;;;;2.90;1.10;;;;;;;30.71;26.85;97399.91;5062492;28;20518;-72
2022/07/26 09:18:51;;;;;;;9.90;1.23;;;;;;;30.70;27.26;97406.41;5044553;28;20438;-72
2022/07/26 09:21:35;;;;;;;1.60;1.00;;;;;;;30.68;27.54;97395.88;5064059;28;20873;-73
2022/07/26 09:24:01;;;;;;;2.67;1.40;;;;;;;30.93;27.26;97399.53;5055386;28;20485;-72
2022/07/26 09:26:27;;;;;;;5.00;1.90;;;;;;;31.16;27.22;97399.94;5059708;28;20500;-72
2022/07/26 09:29:07;;;;;;;6.97;1.90;;;;;;;31.33;26.59;97397.66;5066154;28;20183;-73
2022/07/26 09:31:33;;;;;;;7.70;2.53;;;;;;;31.22;26.70;97394.19;5052868;28;20216;-72
2022/07/26 09:33:59;;;;;;;2.33;1.50;;;;;;;31.07;26.52;97400.50;5062534;28;20433;-72
2022/07/26 09:36:26;;;;;;;2.40;1.10;;;;;;;30.96;27.31;97401.69;5070095;28;20465;-72
2022/07/26 09:38:59;;;;;;;2.33;1.10;;;;;;;31.09;27.40;97408.34;5060760;28;20189;-72
2022/07/26 09:41:29;;;;;;;3.90;1.20;;;;;;;31.35;26.50;97403.59;5067318;28;20425;-73
2022/07/26 09:43:58;;;;;;;3.87;1.23;;;;;;;31.58;26.65;97398.50;5054898;28;20483;-72
2022/07/26 09:46:26;;;;;;;3.70;1.30;;;;;;;31.47;26.16;97399.69;5064046;28;20433;-72
2022/07/26 09:48:54;;;;;;;2.37;1.27;;;;;;;31.38;26.37;97405.72;5058944;28;20433;-72
2022/07/26 09:51:41;;;;;;;2.80;1.50;;;;;;;31.43;26.23;97393.22;5060180;28;20516;-72
2022/07/26 09:54:08;;;;;;;1.77;1.10;;;;;;;31.33;26.27;97413.06;5057988;28;20498;-71
2022/07/26 09:56:44;;;;;;;6.63;1.00;;;;;;;31.00;26.79;97415.44;5061433;28;20464;-71
2022/07/26 09:59:12;;;;;;;1.23;0.97;;;;;;;30.94;26.61;97401.16;5071996;28;20930;-72
2022/07/26 10:01:37;;;;;;;2.17;1.97;;;;;;;30.95;26.68;97406.25;5057924;28;20425;-72
2022/07/26 10:04:03;;;;;;;2.47;1.53;;;;;;;30.92;26.89;97416.84;5066419;28;20437;-72
2022/07/26 10:06:28;;;;;;;3.77;3.40;;;;;;;30.86;26.78;97420.69;5052848;28;20197;-71
2022/07/26 10:08:55;;;;;;;2.07;1.13;;;;;;;30.70;26.64;97423.47;5072442;28;20239;-72
2022/07/26 10:11:23;;;;;;;2.40;1.43;;;;;;;30.52;27.12;97421.34;5040433;28;20183;-72
2022/07/26 10:13:48;;;;;;;3.83;0.90;;;;;;;30.64;27.05;97413.75;5051772;28;20455;-72
2022/07/26 10:16:30;;;;;;;10.90;1.17;;;;;;;31.03;27.61;97420.31;5063660;28;21010;-72
2022/07/26 10:18:57;;;;;;;2.07;1.30;;;;;;;31.38;26.76;97426.56;5075491;28;20189;-72
2022/07/26 10:21:24;;;;;;;3.63;1.70;;;;;;;31.68;26.07;97420.09;5077438;28;20504;-71
2022/07/26 10:23:52;;;;;;;8.00;1.50;;;;;;;31.91;26.50;97415.00;5064734;28;20802;-70
2022/07/26 10:26:30;;;;;;;1.70;1.33;;;;;;;31.81;26.03;97421.38;5078302;28;20448;-71
2022/07/26 10:29:15;;;;;;;3.00;1.23;;;;;;;31.92;26.10;97416.63;5063251;28;20429;-70
2022/07/26 10:31:44;;;;;;;2.23;1.80;;;;;;;31.89;26.23;97419.13;5055550;28;20465;-70
2022/07/26 10:34:26;;;;;;;2.00;1.80;;;;;;;31.83;26.26;97421.06;5061660;28;20522;-72
2022/07/26 10:36:58;;;;;;;5.07;1.37;;;;;;;31.91;25.96;97423.13;5037285;28;20480;-70
2022/07/26 10:39:24;;;;;;;1.53;1.10;;;;;;;32.00;26.13;97416.03;5064930;28;20437;-72
2022/07/26 10:42:16;;;;;;;3.00;1.00;;;;;;;32.14;26.43;97416.13;5069143;28;20489;-71
2022/07/26 10:44:44;;;;;;;2.70;1.00;;;;;;;32.38;26.02;97411.84;5042271;28;20444;-73
2022/07/26 10:47:14;;;;;;;3.43;1.00;;;;;;;32.58;25.87;97413.47;5073345;28;20508;-72
2022/07/26 10:50:00;;;;;;;2.10;1.13;;;;;;;32.67;25.41;97416.34;5058222;28;20425;-71
2022/07/26 10:52:31;;;;;;;1.47;1.00;;;;;;;32.81;24.34;97417.25;5063245;28;20448;-70
2022/07/26 10:54:56;;;;;;;6.20;1.27;;;;;;;32.51;24.93;97421.97;5059317;28;20425;-71
2022/07/26 10:57:28;;;;;;;3.73;1.07;;;;;;;32.34;25.59;97421.63;5066260;28;20633;-73
2022/07/26 10:59:56;;;;;;;3.43;1.07;;;;;;;31.99;26.24;97427.94;5062439;28;20191;-71
2022/07/26 11:02:27;;;;;;;1.90;0.90;;;;;;;32.00;25.41;97428.75;5064270;28;20516;-72
2022/07/26 11:05:11;;;;;;;2.03;0.80;;;;;;;32.02;25.76;97426.56;5059826;28;20457;-70
2022/07/26 11:08:18;;;;;;;4.13;1.13;;;;;;;32.03;26.01;97422.75;5061440;28;20484;-73
2022/07/26 11:10:45;;;;;;;2.57;0.97;;;;;;;32.00;25.54;97415.19;5007517;28;20425;-71
2022/07/26 11:13:16;;;;;;;3.30;0.80;;;;;;;31.84;26.11;97418.06;5057301;28;20440;-73
2022/07/26 11:15:46;;;;;;;3.73;1.00;;;;;;;31.95;26.03;97424.19;5054660;28;20466;-72
2022/07/26 11:18:13;;;;;;;4.17;1.10;;;;;;;32.12;25.20;97421.03;5059650;28;20578;-72
2022/07/26 11:20:39;;;;;;;2.70;0.80;;;;;;;31.95;25.27;97417.94;5071024;28;20416;-72
2022/07/26 11:23:21;;;;;;;1.27;0.80;;;;;;;31.70;25.95;97434.19;5062499;28;20429;-72
2022/07/26 11:26:09;;;;;;;4.97;1.37;;;;;;;31.40;26.32;97427.91;5051454;28;20795;-72
2022/07/26 11:28:58;;;;;;;7.60;2.57;;;;;;;31.64;26.24;97423.66;5043124;28;20456;-72
2022/07/26 11:31:36;;;;;;;2.53;1.53;;;;;;;31.79;25.97;97422.72;5071215;28;20923;-72
2022/07/26 11:34:03;;;;;;;1.63;1.13;;;;;;;32.12;26.05;97425.66;5060772;28;20935;-72